Time;durP1;ratioP1;P1;durP2;ratioP2;P2;SDS_P1;SDS_P2;PMS_P1;PMS_P2;Temp;Humidity;BMP_temperature;BMP_pressure;BME280_temperature;BME280_humidity;BME280_pressure;Samples;Min_cycle;Max_cycle;Signal;HPM_P1;HPM_P2
2022/09/03 00:00:22;;;;;;;2.57;2.30;;;20.50;84.30;;;;;;5073610;28;20425;-70
2022/09/03 00:02:57;;;;;;;3.30;3.00;;;20.30;84.60;;;;;;5073623;28;20491;-70
2022/09/03 00:05:35;;;;;;;6.07;2.70;;;20.40;84.80;;;;;;5073508;28;20443;-70
2022/09/03 00:08:07;;;;;;;3.20;2.83;;;20.30;85.50;;;;;;5073749;28;20520;-70
2022/09/03 00:10:43;;;;;;;3.87;2.57;;;20.30;86.00;;;;;;5073356;28;20436;-70
2022/09/03 00:13:16;;;;;;;2.43;2.23;;;20.30;87.00;;;;;;5073512;28;20439;-70
2022/09/03 00:15:43;;;;;;;3.03;2.80;;;20.40;84.60;;;;;;5073249;28;20920;-70
2022/09/03 00:18:15;;;;;;;2.40;2.20;;;20.40;85.10;;;;;;5073573;28;20530;-70
2022/09/03 00:20:49;;;;;;;3.03;2.60;;;20.60;84.40;;;;;;5073411;28;20464;-71
2022/09/03 00:23:21;;;;;;;3.00;2.40;;;20.40;84.20;;;;;;5073130;28;20487;-70
2022/09/03 00:25:54;;;;;;;5.20;2.27;;;20.30;85.00;;;;;;5073346;28;20429;-70
2022/09/03 00:28:26;;;;;;;3.53;2.40;;;20.30;84.20;;;;;;5073558;28;20524;-70
2022/09/03 00:31:01;;;;;;;4.30;2.67;;;20.20;85.80;;;;;;5073369;28;20468;-70
2022/09/03 00:33:32;;;;;;;4.23;2.30;;;20.10;86.80;;;;;;5073334;28;20436;-69
2022/09/03 00:36:12;;;;;;;2.80;2.60;;;20.30;87.40;;;;;;5073021;28;20444;-70
2022/09/03 00:38:39;;;;;;;2.97;2.20;;;20.40;85.90;;;;;;5072959;28;20443;-70
2022/09/03 00:41:10;;;;;;;3.47;2.33;;;20.50;86.20;;;;;;5074246;28;20498;-70
2022/09/03 00:44:01;;;;;;;3.30;1.97;;;20.50;85.40;;;;;;5077445;28;20428;-70
2022/09/03 00:46:38;;;;;;;2.50;2.30;;;20.60;86.30;;;;;;5077634;28;20424;-69
2022/09/03 00:49:24;;;;;;;3.63;2.07;;;20.50;85.80;;;;;;5077008;28;20515;-70
2022/09/03 00:52:03;;;;;;;3.93;2.10;;;20.40;86.90;;;;;;5076972;28;20455;-70
2022/09/03 00:54:41;;;;;;;2.67;2.20;;;20.40;87.70;;;;;;5076924;28;20523;-70
2022/09/03 00:57:24;;;;;;;3.47;2.20;;;20.50;86.10;;;;;;5077070;28;20432;-70
2022/09/03 00:59:59;;;;;;;3.30;2.30;;;20.50;87.00;;;;;;5077097;28;20463;-70
2022/09/03 01:02:37;;;;;;;3.53;2.70;;;20.50;87.80;;;;;;5076897;28;20495;-70
2022/09/03 01:05:10;;;;;;;2.40;2.20;;;20.50;86.90;;;;;;5076713;28;20527;-69
2022/09/03 01:07:47;;;;;;;4.90;3.10;;;20.50;87.20;;;;;;5077091;28;20433;-69
2022/09/03 01:10:26;;;;;;;2.83;2.23;;;20.30;87.80;;;;;;5076783;28;20435;-70
2022/09/03 01:12:59;;;;;;;2.57;2.37;;;20.40;87.30;;;;;;5076517;28;20903;-70
2022/09/03 01:15:34;;;;;;;2.80;2.27;;;20.40;87.20;;;;;;5076768;28;20436;-70
2022/09/03 01:18:17;;;;;;;3.43;2.83;;;20.30;87.40;;;;;;5076785;28;20432;-70
2022/09/03 01:20:55;;;;;;;3.03;2.73;;;20.40;87.50;;;;;;5076628;28;20468;-70
2022/09/03 01:23:49;;;;;;;3.53;2.20;;;20.50;87.70;;;;;;5076420;28;20884;-70
2022/09/03 01:26:34;;;;;;;3.53;2.53;;;20.40;87.90;;;;;;5076613;28;20781;-70
2022/09/03 01:29:14;;;;;;;2.50;2.30;;;20.20;88.40;;;;;;5076176;28;20447;-70
2022/09/03 01:31:51;;;;;;;2.33;2.10;;;20.00;89.30;;;;;;5076076;28;20464;-70
2022/09/03 01:34:31;;;;;;;3.00;2.73;;;19.90;89.20;;;;;;5076321;28;20872;-69
2022/09/03 01:37:11;;;;;;;3.93;2.80;;;19.90;89.80;;;;;;5076510;28;20428;-69
2022/09/03 01:39:47;;;;;;;3.03;2.60;;;20.00;89.70;;;;;;5076484;28;20515;-70
2022/09/03 01:42:24;;;;;;;4.90;2.40;;;20.00;89.10;;;;;;5075759;28;20487;-70
2022/09/03 01:45:10;;;;;;;3.23;2.70;;;20.10;90.10;;;;;;5076259;28;20523;-70
2022/09/03 01:47:49;;;;;;;3.67;3.27;;;20.00;90.00;;;;;;5075887;28;20499;-70
2022/09/03 01:50:23;;;;;;;2.83;2.30;;;19.80;90.20;;;;;;5075844;28;20460;-70
2022/09/03 01:52:56;;;;;;;6.60;3.10;;;19.70;91.10;;;;;;5075636;28;20512;-70
2022/09/03 01:55:31;;;;;;;3.57;2.87;;;19.70;91.60;;;;;;5076156;28;20778;-70
2022/09/03 01:58:02;;;;;;;4.63;3.20;;;19.70;91.50;;;;;;5075860;28;20405;-70
2022/09/03 02:00:34;;;;;;;2.80;2.60;;;19.70;91.10;;;;;;5075924;28;20519;-70
2022/09/03 02:03:04;;;;;;;3.90;3.03;;;19.80;91.80;;;;;;5075593;28;20464;-70
2022/09/03 02:05:32;;;;;;;3.70;2.97;;;19.90;90.90;;;;;;5076058;28;20853;-70
2022/09/03 02:08:02;;;;;;;4.03;3.63;;;20.00;91.00;;;;;;5075937;28;20476;-70
2022/09/03 02:10:34;;;;;;;3.07;2.87;;;19.80;91.40;;;;;;5075335;28;20520;-69
2022/09/03 02:13:05;;;;;;;2.80;2.60;;;20.10;91.50;;;;;;5075482;28;20880;-70
2022/09/03 02:15:36;;;;;;;2.50;2.30;;;19.90;91.50;;;;;;5075901;28;20429;-70
2022/09/03 02:18:10;;;;;;;2.70;2.50;;;19.70;90.20;;;;;;5075764;28;20883;-70
2022/09/03 02:20:38;;;;;;;2.80;2.60;;;19.70;90.80;;;;;;5075190;28;20478;-70
2022/09/03 02:23:05;;;;;;;2.93;2.60;;;19.90;90.60;;;;;;5075477;28;20480;-70
2022/09/03 02:25:37;;;;;;;3.50;2.60;;;20.10;90.50;;;;;;5075610;28;20444;-70
2022/09/03 02:28:06;;;;;;;2.60;2.40;;;19.90;90.30;;;;;;5075126;28;20764;-70
2022/09/03 02:30:35;;;;;;;3.37;3.10;;;19.90;90.80;;;;;;5075382;28;20836;-70
2022/09/03 02:33:02;;;;;;;2.40;2.20;;;19.70;90.40;;;;;;5075509;28;20443;-71
2022/09/03 02:35:29;;;;;;;4.93;2.70;;;19.60;91.50;;;;;;5075457;28;20538;-71
2022/09/03 02:37:56;;;;;;;6.43;2.63;;;19.70;90.90;;;;;;5074946;28;20451;-70
2022/09/03 02:40:24;;;;;;;3.60;2.90;;;19.70;91.70;;;;;;5074993;28;20432;-70
2022/09/03 02:42:52;;;;;;;3.23;2.60;;;19.80;92.00;;;;;;5075212;28;20491;-70
2022/09/03 02:45:26;;;;;;;4.33;2.40;;;19.80;91.90;;;;;;5074817;28;20547;-70
2022/09/03 02:47:57;;;;;;;3.20;2.80;;;19.90;91.90;;;;;;5074606;28;20476;-71
2022/09/03 02:50:25;;;;;;;4.60;2.70;;;19.80;91.90;;;;;;5075151;28;20520;-70
2022/09/03 02:52:53;;;;;;;2.50;2.30;;;19.90;91.80;;;;;;5074661;28;20451;-71
2022/09/03 02:55:20;;;;;;;3.73;2.50;;;19.80;92.00;;;;;;5074877;28;20458;-70
2022/09/03 02:57:47;;;;;;;3.43;3.13;;;19.70;91.70;;;;;;5074990;28;20484;-70
2022/09/03 03:00:15;;;;;;;3.63;2.90;;;19.60;91.50;;;;;;5074644;28;20989;-70
2022/09/03 03:02:42;;;;;;;3.10;2.40;;;19.50;92.10;;;;;;5074337;28;20476;-70
2022/09/03 03:05:18;;;;;;;5.70;2.87;;;19.50;92.10;;;;;;5073582;28;20455;-70
2022/09/03 03:07:45;;;;;;;3.77;2.97;;;19.50;91.90;;;;;;5074847;28;20542;-70
2022/09/03 03:10:13;;;;;;;6.53;2.53;;;19.50;91.80;;;;;;5074607;28;20484;-70
2022/09/03 03:12:41;;;;;;;4.30;2.73;;;19.40;91.90;;;;;;5074658;28;20468;-70
2022/09/03 03:15:09;;;;;;;2.63;2.43;;;19.60;92.50;;;;;;5074306;28;20448;-70
2022/09/03 03:17:36;;;;;;;2.50;2.30;;;19.60;92.60;;;;;;5074467;28;20847;-70
2022/09/03 03:20:04;;;;;;;2.67;2.47;;;19.50;93.00;;;;;;5074160;28;20428;-70
2022/09/03 03:22:32;;;;;;;3.97;2.20;;;19.40;93.30;;;;;;5074337;28;20980;-70
2022/09/03 03:25:00;;;;;;;2.80;2.60;;;19.30;93.40;;;;;;5074392;28;20450;-70
2022/09/03 03:27:27;;;;;;;2.63;2.43;;;19.10;92.50;;;;;;5073899;28;20875;-70
2022/09/03 03:29:54;;;;;;;5.40;2.80;;;19.10;92.80;;;;;;5073931;28;20958;-70
2022/09/03 03:32:21;;;;;;;3.10;2.53;;;19.00;92.90;;;;;;5074268;28;20464;-70
2022/09/03 03:34:48;;;;;;;4.03;2.60;;;19.10;93.20;;;;;;5074072;28;20448;-70
2022/09/03 03:37:16;;;;;;;2.63;2.30;;;19.10;93.40;;;;;;5074081;28;20538;-70
2022/09/03 03:39:44;;;;;;;2.43;2.23;;;;;;;;;;5074174;28;20425;-71
2022/09/03 03:42:13;;;;;;;2.43;2.23;;;19.50;92.50;;;;;;5073793;28;21020;-70
2022/09/03 03:44:41;;;;;;;2.97;2.17;;;19.30;93.20;;;;;;5073955;28;20790;-70
2022/09/03 03:47:08;;;;;;;4.13;2.40;;;19.30;93.70;;;;;;5073778;28;20461;-70
2022/09/03 03:49:35;;;;;;;3.77;2.37;;;19.40;93.30;;;;;;5073915;28;20852;-71
2022/09/03 03:52:03;;;;;;;2.87;2.20;;;19.50;93.70;;;;;;5073712;28;20532;-71
2022/09/03 03:54:30;;;;;;;5.93;2.93;;;20.10;93.40;;;;;;5073550;28;20543;-71
2022/09/03 03:56:59;;;;;;;2.80;2.33;;;19.90;93.00;;;;;;5073717;28;20444;-71
2022/09/03 03:59:26;;;;;;;2.50;2.30;;;19.50;93.60;;;;;;5073367;28;20931;-71
2022/09/03 04:01:55;;;;;;;5.70;2.93;;;19.20;93.70;;;;;;5073370;28;20552;-71
2022/09/03 04:04:22;;;;;;;3.70;2.67;;;19.10;94.30;;;;;;5073345;28;20935;-71
2022/09/03 04:06:49;;;;;;;3.13;2.83;;;19.00;94.40;;;;;;5073351;28;20821;-71
2022/09/03 04:09:16;;;;;;;4.83;3.00;;;19.00;94.70;;;;;;5073679;28;20543;-70
2022/09/03 04:11:43;;;;;;;3.57;2.70;;;19.00;95.00;;;;;;5073778;28;20801;-70
2022/09/03 04:14:12;;;;;;;3.80;2.60;;;19.10;95.00;;;;;;5073536;28;20444;-71
2022/09/03 04:16:39;;;;;;;3.80;2.30;;;19.10;94.90;;;;;;5073324;28;20452;-71
2022/09/03 04:19:06;;;;;;;4.23;2.77;;;19.20;94.80;;;;;;5073295;28;20451;-70
2022/09/03 04:21:33;;;;;;;3.23;2.90;;;19.40;94.80;;;;;;5073414;28;20559;-70
2022/09/03 04:24:00;;;;;;;3.60;3.10;;;19.20;94.80;;;;;;5073038;28;20567;-70
2022/09/03 04:26:30;;;;;;;3.70;2.77;;;19.00;95.20;;;;;;5073491;28;20548;-71
2022/09/03 04:28:58;;;;;;;4.80;2.50;;;19.00;95.90;;;;;;5072979;28;20945;-70
2022/09/03 04:31:26;;;;;;;2.70;2.50;;;19.20;95.30;;;;;;5072899;28;20475;-71
2022/09/03 04:33:54;;;;;;;3.07;2.70;;;19.00;95.70;;;;;;5073486;28;20850;-71
2022/09/03 04:36:22;;;;;;;2.67;2.47;;;19.10;95.80;;;;;;5073078;28;20447;-71
2022/09/03 04:38:51;;;;;;;3.47;2.50;;;18.90;95.80;;;;;;5072929;28;20444;-71
2022/09/03 04:41:20;;;;;;;2.47;2.27;;;19.00;96.30;;;;;;5073319;28;20464;-70
2022/09/03 04:43:48;;;;;;;2.97;2.70;;;19.00;96.90;;;;;;5072876;28;21085;-71
2022/09/03 04:46:16;;;;;;;4.20;3.00;;;19.00;96.80;;;;;;5073146;28;20444;-71
2022/09/03 04:48:48;;;;;;;2.67;2.47;;;18.90;97.10;;;;;;5072907;28;20498;-71
2022/09/03 04:51:17;;;;;;;3.80;2.80;;;18.80;98.00;;;;;;5072948;28;20475;-70
2022/09/03 04:53:46;;;;;;;3.27;2.97;;;19.00;98.20;;;;;;5073045;28;20473;-71
2022/09/03 04:56:14;;;;;;;2.87;2.67;;;19.20;98.00;;;;;;5073059;28;20455;-71
2022/09/03 04:58:43;;;;;;;2.93;2.73;;;19.40;98.00;;;;;;5072897;28;20429;-71
2022/09/03 05:01:11;;;;;;;3.00;2.80;;;19.20;98.10;;;;;;5072969;28;20475;-71
2022/09/03 05:03:38;;;;;;;4.03;2.80;;;19.00;98.50;;;;;;5072904;28;20480;-71
2022/09/03 05:06:08;;;;;;;3.40;2.70;;;19.10;98.10;;;;;;5073042;28;20917;-71
2022/09/03 05:08:35;;;;;;;5.40;3.03;;;19.00;98.80;;;;;;5072766;28;20444;-70
2022/09/03 05:11:03;;;;;;;3.33;3.03;;;19.00;98.60;;;;;;5072899;28;20481;-71
2022/09/03 05:13:30;;;;;;;3.30;3.00;;;18.90;99.10;;;;;;5072618;28;20531;-71
2022/09/03 05:16:01;;;;;;;3.47;3.13;;;19.00;98.80;;;;;;5072742;28;20539;-71
2022/09/03 05:18:28;;;;;;;2.93;2.73;;;18.90;98.80;;;;;;5072619;28;20950;-71
2022/09/03 05:21:00;;;;;;;2.97;2.77;;;19.10;98.40;;;;;;5072825;28;20500;-71
2022/09/03 05:23:30;;;;;;;3.97;2.70;;;19.30;98.30;;;;;;5072633;28;20551;-71
2022/09/03 05:25:58;;;;;;;3.40;2.57;;;19.20;98.10;;;;;;5072792;28;20455;-70
2022/09/03 05:28:26;;;;;;;2.80;2.37;;;19.00;98.50;;;;;;5075389;28;20455;-71
2022/09/03 05:31:03;;;;;;;3.30;3.00;;;19.00;99.10;;;;;;5076682;28;20471;-71
2022/09/03 05:33:34;;;;;;;3.43;3.13;;;18.90;99.20;;;;;;5076289;28;20420;-71
2022/09/03 05:36:02;;;;;;;4.77;2.77;;;19.00;99.80;;;;;;5076105;28;20921;-70
2022/09/03 05:38:30;;;;;;;3.30;3.03;;;19.30;99.40;;;;;;5076341;28;20444;-71
2022/09/03 05:40:59;;;;;;;3.60;3.30;;;19.40;99.00;;;;;;5076188;28;20467;-71
2022/09/03 05:43:26;;;;;;;6.73;3.03;;;19.40;99.30;;;;;;5076342;28;20537;-71
2022/09/03 05:45:59;;;;;;;4.47;2.73;;;19.30;99.60;;;;;;5076203;28;20450;-71
2022/09/03 05:48:26;;;;;;;3.77;3.20;;;19.20;99.90;;;;;;5075739;28;20484;-71
2022/09/03 05:51:00;;;;;;;5.43;3.50;;;19.20;99.90;;;;;;5076266;28;20543;-70
2022/09/03 05:53:28;;;;;;;3.80;3.40;;;19.20;99.90;;;;;;5075821;28;20424;-71
2022/09/03 05:56:00;;;;;;;3.33;3.03;;;19.20;99.90;;;;;;5076131;28;20455;-71
2022/09/03 05:58:31;;;;;;;4.90;3.37;;;19.20;99.90;;;;;;5075904;28;20466;-70
2022/09/03 06:00:58;;;;;;;3.40;3.10;;;19.20;99.90;;;;;;5075760;28;20954;-71
2022/09/03 06:03:26;;;;;;;3.13;2.87;;;19.20;99.90;;;;;;5075904;28;20494;-71
2022/09/03 06:05:54;;;;;;;3.17;2.87;;;19.20;99.90;;;;;;5075985;28;20451;-71
2022/09/03 06:08:22;;;;;;;5.43;3.50;;;19.30;99.90;;;;;;5075861;28;20499;-71
2022/09/03 06:10:49;;;;;;;3.37;3.07;;;19.30;99.90;;;;;;5075639;28;20510;-71
2022/09/03 06:13:18;;;;;;;4.40;2.97;;;19.40;99.90;;;;;;5075745;28;20428;-71
2022/09/03 06:15:45;;;;;;;3.03;2.73;;;19.50;99.90;;;;;;5075532;28;20532;-71
2022/09/03 06:18:12;;;;;;;3.70;3.40;;;19.50;99.90;;;;;;5075338;28;21011;-71
2022/09/03 06:20:39;;;;;;;3.80;3.47;;;19.40;99.90;;;;;;5075207;28;20468;-71
2022/09/03 06:23:06;;;;;;;4.57;3.50;;;19.40;99.90;;;;;;5075319;28;20476;-70
2022/09/03 06:25:33;;;;;;;3.40;3.20;;;19.40;99.90;;;;;;5075492;28;20468;-71
2022/09/03 06:28:01;;;;;;;4.20;3.87;;;19.50;99.90;;;;;;5074994;28;20448;-71
2022/09/03 06:30:29;;;;;;;2.60;2.40;;;19.40;99.90;;;;;;5075093;28;20940;-71
2022/09/03 06:32:58;;;;;;;5.77;3.90;;;19.70;99.90;;;;;;5075506;28;20521;-71
2022/09/03 06:35:25;;;;;;;3.63;3.33;;;19.90;99.90;;;;;;5075205;28;20452;-71
2022/09/03 06:37:52;;;;;;;3.87;3.50;;;20.20;99.90;;;;;;5074845;28;20448;-71
2022/09/03 06:40:21;;;;;;;4.43;3.97;;;20.00;99.90;;;;;;5074924;28;20954;-71
2022/09/03 06:43:01;;;;;;;4.00;3.43;;;20.10;99.90;;;;;;5075277;28;20499;-71
2022/09/03 06:45:30;;;;;;;4.10;3.70;;;19.90;99.90;;;;;;5074853;28;20436;-71
2022/09/03 06:47:57;;;;;;;4.37;3.70;;;19.80;99.90;;;;;;5074557;28;20479;-71
2022/09/03 06:50:24;;;;;;;4.70;4.30;;;19.90;99.90;;;;;;5074698;28;20934;-71
2022/09/03 06:52:53;;;;;;;3.87;3.47;;;19.80;99.90;;;;;;5074640;28;20444;-71
2022/09/03 06:55:21;;;;;;;4.63;4.23;;;19.70;99.90;;;;;;5074450;28;20452;-71
2022/09/03 06:57:50;;;;;;;4.17;3.87;;;19.80;99.90;;;;;;5074440;28;20995;-71
2022/09/03 07:00:17;;;;;;;4.30;3.90;;;19.90;99.90;;;;;;5074461;28;20469;-71
2022/09/03 07:02:47;;;;;;;6.60;4.23;;;19.70;99.90;;;;;;5074568;28;20853;-71
2022/09/03 07:05:14;;;;;;;4.10;3.70;;;19.60;99.90;;;;;;5074515;28;20498;-71
2022/09/03 07:07:43;;;;;;;4.13;3.67;;;19.50;99.90;;;;;;5074314;28;20451;-71
2022/09/03 07:10:14;;;;;;;7.20;4.30;;;19.60;99.90;;;;;;5074545;28;20452;-71
2022/09/03 07:12:42;;;;;;;4.23;3.83;;;19.90;99.90;;;;;;5074666;28;20544;-71
2022/09/03 07:15:11;;;;;;;8.57;3.70;;;19.80;99.90;;;;;;5074631;28;20456;-71
2022/09/03 07:17:38;;;;;;;4.73;4.33;;;19.80;99.90;;;;;;5074102;28;20448;-71
2022/09/03 07:20:07;;;;;;;4.07;3.77;;;19.80;99.90;;;;;;5074323;28;20484;-71
2022/09/03 07:22:34;;;;;;;4.00;3.70;;;19.90;99.90;;;;;;5074319;28;20495;-70
2022/09/03 07:25:02;;;;;;;4.37;3.97;;;20.10;99.90;;;;;;5073898;28;20468;-71
2022/09/03 07:27:29;;;;;;;4.30;3.97;;;20.20;99.90;;;;;;5073787;28;20482;-70
2022/09/03 07:29:56;;;;;;;4.53;3.70;;;20.20;99.90;;;;;;5074227;28;20836;-62
2022/09/03 07:32:23;;;;;;;4.43;3.63;;;20.30;99.90;;;;;;5073827;28;20449;-59
2022/09/03 07:34:51;;;;;;;4.53;4.13;;;20.40;99.90;;;;;;5073741;28;20873;-60
2022/09/03 07:37:20;;;;;;;3.70;3.17;;;20.80;99.90;;;;;;5074299;28;20449;-60
2022/09/03 07:39:47;;;;;;;3.93;3.63;;;21.20;99.90;;;;;;5074019;28;20491;-60
2022/09/03 07:42:14;;;;;;;5.03;4.23;;;21.90;99.90;;;;;;5073933;28;20510;-60
2022/09/03 07:44:41;;;;;;;5.13;4.63;;;21.80;99.90;;;;;;5074004;28;20483;-60
2022/09/03 07:47:08;;;;;;;6.60;3.90;;;21.60;99.90;;;;;;5073623;28;20869;-60
2022/09/03 07:49:35;;;;;;;4.60;4.17;;;21.50;99.90;;;;;;5073037;28;20437;-59
2022/09/03 07:52:03;;;;;;;4.83;4.17;;;21.20;99.90;;;;;;5073320;28;20559;-59
2022/09/03 07:54:31;;;;;;;4.27;3.87;;;21.20;99.90;;;;;;5073715;28;20479;-57
2022/09/03 07:56:59;;;;;;;4.10;3.53;;;21.70;99.90;;;;;;5073532;28;20453;-57
2022/09/03 07:59:26;;;;;;;6.03;4.10;;;21.80;99.90;;;;;;5073437;28;20444;-56
2022/09/03 08:01:53;;;;;;;5.17;4.50;;;21.80;99.90;;;;;;5073480;28;20464;-58
2022/09/03 08:04:21;;;;;;;6.67;4.17;;;21.80;99.90;;;;;;5073379;28;20484;-55
2022/09/03 08:06:49;;;;;;;5.80;3.90;;;21.80;99.90;;;;;;5073505;28;20784;-55
2022/09/03 08:09:18;;;;;;;3.87;3.57;;;22.40;99.90;;;;;;5073669;28;20445;-56
2022/09/03 08:11:47;;;;;;;4.40;4.10;;;22.20;99.90;;;;;;5073320;28;20559;-55
2022/09/03 08:14:15;;;;;;;6.43;4.00;;;22.60;99.90;;;;;;5073432;28;20451;-58
2022/09/03 08:16:44;;;;;;;4.03;3.67;;;23.20;99.90;;;;;;5073570;28;20471;-54
2022/09/03 08:19:12;;;;;;;4.57;3.50;;;23.10;99.90;;;;;;5073179;28;20448;-59
2022/09/03 08:21:40;;;;;;;6.20;3.53;;;23.60;99.90;;;;;;5073361;28;20487;-55
2022/09/03 08:24:08;;;;;;;3.50;3.20;;;23.90;99.90;;;;;;5073058;28;20561;-56
2022/09/03 08:26:36;;;;;;;4.13;3.83;;;24.10;99.90;;;;;;5073005;28;20444;-53
2022/09/03 08:29:05;;;;;;;4.53;4.13;;;24.00;99.90;;;;;;5070265;28;20803;-56
2022/09/03 08:31:33;;;;;;;4.00;3.70;;;23.70;99.90;;;;;;5069257;28;20474;-56
2022/09/03 08:34:05;;;;;;;4.00;3.60;;;23.10;99.90;;;;;;5071901;28;20531;-55
2022/09/03 08:36:33;;;;;;;4.00;3.70;;;23.20;99.90;;;;;;5072357;28;20460;-52
2022/09/03 08:39:03;;;;;;;4.70;4.23;;;23.60;99.90;;;;;;5070715;28;20449;-53
2022/09/03 08:41:42;;;;;;;5.03;3.90;;;24.10;99.90;;;;;;5071832;28;20966;-50
2022/09/03 08:44:24;;;;;;;4.70;4.20;;;25.00;99.90;;;;;;5070283;28;20464;-51
2022/09/03 08:46:54;;;;;;;6.07;3.60;;;26.00;99.00;;;;;;5071473;28;20429;-54
2022/09/03 08:49:25;;;;;;;4.10;3.70;;;25.60;98.40;;;;;;5071704;28;20428;-56
2022/09/03 08:51:54;;;;;;;4.33;3.53;;;25.20;99.20;;;;;;5070014;28;20470;-55
2022/09/03 08:54:26;;;;;;;3.77;3.47;;;25.20;98.90;;;;;;5071884;28;20817;-58
2022/09/03 08:56:56;;;;;;;4.50;3.73;;;25.20;99.20;;;;;;5071109;28;20762;-53
2022/09/03 08:59:25;;;;;;;4.37;4.03;;;25.30;98.50;;;;;;5069814;28;20539;-53
2022/09/03 09:01:56;;;;;;;5.00;3.67;;;24.30;99.50;;;;;;5072179;28;20464;-50
2022/09/03 09:04:38;;;;;;;4.20;3.70;;;24.80;99.00;;;;;;5075785;28;20551;-54
2022/09/03 09:07:11;;;;;;;3.70;3.40;;;24.90;98.80;;;;;;5072683;28;20421;-56
2022/09/03 09:09:48;;;;;;;4.23;3.83;;;24.80;99.10;;;;;;5075587;28;20908;-57
2022/09/03 09:12:29;;;;;;;4.20;3.70;;;24.50;99.80;;;;;;5076132;28;20486;-58
2022/09/03 09:15:08;;;;;;;4.53;3.87;;;24.90;98.80;;;;;;5074583;28;20436;-56
2022/09/03 09:17:50;;;;;;;3.80;3.50;;;24.60;98.90;;;;;;5075661;28;20452;-55
2022/09/03 09:20:26;;;;;;;4.30;3.90;;;24.60;99.00;;;;;;5076048;28;20463;-51
2022/09/03 09:22:57;;;;;;;3.70;3.40;;;24.50;99.20;;;;;;5074449;28;20960;-56
2022/09/03 09:25:26;;;;;;;5.23;3.70;;;24.30;99.80;;;;;;5075634;28;20468;-52
2022/09/03 09:27:59;;;;;;;4.93;4.47;;;24.10;99.90;;;;;;5074985;28;20873;-55
2022/09/03 09:30:29;;;;;;;4.10;3.70;;;24.30;99.50;;;;;;5073943;28;20778;-56
2022/09/03 09:32:56;;;;;;;4.40;4.10;;;24.70;99.10;;;;;;5074953;28;20451;-55
2022/09/03 09:35:24;;;;;;;4.73;3.90;;;25.40;98.30;;;;;;5075543;28;20534;-55
2022/09/03 09:37:52;;;;;;;3.67;3.37;;;26.30;97.00;;;;;;5074061;28;20448;-56
2022/09/03 09:40:31;;;;;;;4.33;3.60;;;27.10;95.60;;;;;;5075234;28;20527;-51
2022/09/03 09:43:10;;;;;;;4.33;3.40;;;26.80;95.10;;;;;;5073213;28;20474;-52
2022/09/03 09:45:40;;;;;;;4.20;3.80;;;25.50;96.20;;;;;;5070417;28;20849;-55
2022/09/03 09:48:17;;;;;;;4.13;3.83;;;26.10;95.90;;;;;;5075071;28;20480;-55
2022/09/03 09:50:45;;;;;;;6.40;4.07;;;26.70;95.20;;;;;;5074492;28;20840;-56
2022/09/03 09:53:16;;;;;;;4.00;3.63;;;27.20;94.00;;;;;;5074834;28;20539;-57
2022/09/03 09:55:51;;;;;;;4.47;4.07;;;27.30;93.80;;;;;;5075617;28;20425;-57
2022/09/03 09:58:21;;;;;;;4.10;3.80;;;27.00;93.80;;;;;;5073607;28;20542;-57
2022/09/03 10:01:12;;;;;;;7.50;3.70;;;26.20;95.10;;;;;;5074903;28;20471;-57
2022/09/03 10:03:48;;;;;;;4.83;3.60;;;25.70;95.30;;;;;;5075116;28;20433;-56
2022/09/03 10:09:08;;;;;;;4.40;4.10;;;25.70;95.70;;;;;;5074651;28;20451;-58
2022/09/03 10:11:38;;;;;;;4.50;4.10;;;25.30;95.80;;;;;;5074840;28;20565;-57
2022/09/03 10:14:11;;;;;;;4.47;4.07;;;25.20;96.10;;;;;;5072579;28;20445;-57
2022/09/03 10:16:47;;;;;;;4.37;3.97;;;25.30;95.70;;;;;;5075073;28;20471;-57
2022/09/03 10:19:18;;;;;;;5.07;4.37;;;25.10;96.00;;;;;;5074880;28;20432;-57
2022/09/03 10:21:53;;;;;;;4.40;4.00;;;25.00;95.80;;;;;;5072961;28;20879;-57
2022/09/03 10:24:38;;;;;;;4.37;3.97;;;25.00;95.80;;;;;;5074576;28;20551;-57
2022/09/03 10:27:09;;;;;;;4.60;3.60;;;25.10;95.70;;;;;;5074454;28;20436;-56
2022/09/03 10:29:39;;;;;;;7.87;3.70;;;25.20;95.50;;;;;;5072811;28;20513;-58
2022/09/03 10:32:24;;;;;;;4.90;4.40;;;25.30;95.50;;;;;;5074054;28;20472;-56
2022/09/03 10:35:03;;;;;;;3.80;3.50;;;25.50;96.40;;;;;;5074329;28;20427;-55
2022/09/03 10:37:39;;;;;;;5.90;5.40;;;25.80;95.40;;;;;;5073210;28;20484;-55
2022/09/03 10:40:19;;;;;;;5.93;4.10;;;26.50;94.40;;;;;;5074394;28;20433;-55
2022/09/03 10:43:00;;;;;;;4.10;3.60;;;27.10;93.50;;;;;;5072857;28;20811;-55
2022/09/03 10:45:35;;;;;;;4.60;3.87;;;27.20;93.20;;;;;;5074437;28;20468;-52
2022/09/03 10:48:26;;;;;;;4.50;3.37;;;27.20;93.70;;;;;;5074260;28;20487;-50
2022/09/03 10:50:57;;;;;;;4.73;4.37;;;26.70;93.70;;;;;;5072291;28;20483;-49
2022/09/03 10:53:41;;;;;;;4.50;4.10;;;26.60;94.20;;;;;;5074435;28;20482;-51
2022/09/03 10:56:16;;;;;;;5.00;4.60;;;27.10;93.30;;;;;;5073979;28;20887;-51
2022/09/03 10:59:01;;;;;;;5.97;3.87;;;26.70;93.90;;;;;;5072085;28;20432;-51
2022/09/03 11:01:35;;;;;;;5.47;4.37;;;26.90;94.10;;;;;;5072451;28;20440;-52
2022/09/03 11:04:20;;;;;;;6.93;4.60;;;26.70;94.40;;;;;;5073375;28;20443;-47
2022/09/03 11:06:52;;;;;;;4.97;4.57;;;26.30;95.20;;;;;;5072079;28;20472;-50
2022/09/03 11:09:23;;;;;;;4.80;4.30;;;26.10;94.40;;;;;;5073688;28;20440;-51
2022/09/03 11:11:56;;;;;;;7.03;4.47;;;25.90;94.50;;;;;;5073482;28;20472;-51
2022/09/03 11:14:33;;;;;;;5.00;4.60;;;25.30;94.90;;;;;;5072290;28;20502;-51
2022/09/03 11:17:07;;;;;;;4.90;4.47;;;25.20;95.90;;;;;;5073367;28;20760;-51
2022/09/03 11:19:47;;;;;;;5.43;4.17;;;25.00;96.60;;;;;;5072506;28;20438;-49
2022/09/03 11:22:17;;;;;;;6.30;5.20;;;25.10;96.30;;;;;;5073557;28;20472;-48
2022/09/03 11:24:50;;;;;;;10.33;4.83;;;24.60;96.70;;;;;;5073014;28;20472;-51
2022/09/03 11:27:29;;;;;;;4.73;4.27;;;24.50;97.60;;;;;;5071986;28;20508;-49
2022/09/03 11:30:02;;;;;;;4.80;4.40;;;24.30;97.50;;;;;;5072846;28;20431;-54
2022/09/03 11:32:41;;;;;;;5.10;4.70;;;24.20;97.30;;;;;;5073120;28;20971;-49
2022/09/03 11:35:16;;;;;;;9.20;4.73;;;24.40;96.50;;;;;;5071566;28;20424;-55
2022/09/03 11:37:53;;;;;;;11.40;5.17;;;24.60;97.00;;;;;;5073347;28;20451;-51
2022/09/03 11:40:28;;;;;;;5.00;4.03;;;24.70;96.80;;;;;;5073230;28;20435;-48
2022/09/03 11:43:06;;;;;;;4.47;4.07;;;24.60;97.20;;;;;;5071623;28;20899;-50
2022/09/03 11:45:38;;;;;;;5.43;4.93;;;24.40;97.50;;;;;;5072918;28;20452;-55
2022/09/03 11:48:28;;;;;;;6.00;4.77;;;23.90;97.90;;;;;;5072850;28;20480;-51
2022/09/03 11:50:57;;;;;;;5.50;5.00;;;23.80;98.70;;;;;;5071365;28;20464;-50
2022/09/03 11:53:28;;;;;;;5.63;5.10;;;23.70;98.90;;;;;;5072682;28;20841;-48
2022/09/03 11:55:59;;;;;;;7.33;4.47;;;23.60;98.40;;;;;;5072662;28;20887;-49
2022/09/03 11:58:31;;;;;;;4.53;4.00;;;23.70;99.20;;;;;;5070824;28;20833;-51
2022/09/03 12:01:01;;;;;;;5.20;4.43;;;23.60;99.40;;;;;;5072632;28;20487;-53
2022/09/03 12:03:35;;;;;;;5.17;4.70;;;23.30;98.70;;;;;;5073015;28;20451;-51
2022/09/03 12:06:28;;;;;;;5.50;4.60;;;23.20;99.10;;;;;;5070777;28;20555;-51
2022/09/03 12:09:28;;;;;;;8.40;4.60;;;23.10;99.20;;;;;;5072585;28;20895;-50
2022/09/03 12:12:09;;;;;;;8.30;5.20;;;23.10;99.30;;;;;;5044372;28;20476;-50
2022/09/03 12:14:47;;;;;;;5.00;4.60;;;22.90;99.20;;;;;;5072531;28;20428;-50
2022/09/03 12:17:25;;;;;;;7.77;4.83;;;22.70;99.40;;;;;;5072795;28;20424;-49
2022/09/03 12:19:54;;;;;;;5.10;4.57;;;22.60;99.80;;;;;;5070947;28;20423;-50
2022/09/03 12:22:26;;;;;;;5.87;5.23;;;22.80;99.90;;;;;;5072671;28;20784;-51
2022/09/03 12:24:53;;;;;;;5.10;4.70;;;22.70;99.90;;;;;;5072399;28;20473;-51
2022/09/03 12:27:23;;;;;;;8.20;4.70;;;22.70;99.90;;;;;;5070655;28;20777;-49
2022/09/03 12:29:56;;;;;;;5.33;4.60;;;22.50;99.90;;;;;;5071994;28;20919;-51
2022/09/03 12:32:25;;;;;;;8.03;5.33;;;22.40;99.90;;;;;;5072017;28;20476;-50
2022/09/03 12:34:52;;;;;;;5.10;4.70;;;22.30;99.90;;;;;;5070649;28;20806;-50
2022/09/03 12:37:24;;;;;;;5.60;5.10;;;22.20;99.90;;;;;;5072303;28;20812;-49
2022/09/03 12:39:52;;;;;;;5.03;4.33;;;22.10;99.90;;;;;;5072777;28;20775;-50
2022/09/03 12:42:25;;;;;;;4.53;4.13;;;21.70;99.90;;;;;;5070203;28;20480;-49
2022/09/03 12:44:52;;;;;;;4.00;3.70;;;21.40;99.90;;;;;;5072414;28;20794;-53
2022/09/03 12:47:21;;;;;;;5.40;3.80;;;21.60;99.90;;;;;;5070923;28;20476;-53
2022/09/03 12:49:50;;;;;;;4.43;3.30;;;21.60;99.90;;;;;;5070326;28;20489;-53
2022/09/03 12:52:20;;;;;;;4.90;3.77;;;20.90;99.90;;;;;;5072039;28;20475;-54
2022/09/03 12:54:54;;;;;;;3.20;2.60;;;21.20;99.90;;;;;;5072300;28;20455;-54
2022/09/03 12:57:26;;;;;;;3.47;3.17;;;21.30;99.90;;;;;;5070312;28;20432;-53
2022/09/03 12:59:58;;;;;;;3.80;2.80;;;20.90;99.90;;;;;;5072521;28;20508;-54
2022/09/03 13:02:33;;;;;;;3.87;2.60;;;21.00;99.90;;;;;;5072174;28;20903;-51
2022/09/03 13:05:01;;;;;;;3.40;3.10;;;20.80;99.90;;;;;;5070703;28;20538;-55
2022/09/03 13:07:32;;;;;;;3.57;2.67;;;21.30;99.90;;;;;;5072334;28;20494;-55
2022/09/03 13:10:07;;;;;;;2.77;2.47;;;20.30;99.90;;;;;;5071846;28;20429;-58
2022/09/03 13:12:43;;;;;;;2.90;2.40;;;19.80;99.90;;;;;;5070535;28;20479;-55